x

Boston 16 Nm East Of Boston, Ma (44013) Wave Buoy

8:50pm - Sat 29th Apr 2017 All times are EDT. -4 hours from GMT.

  • Sig Wave height 2.6ft
  • Swell Direction
  • Peak Period 4s
  • Average Period 4s
  • Wind
    16mph, 18mph gusts
  • Sea Temp 49°f
  • Air Temp 60°f
  • Sea Pressure 1012.8mb
  • Boston 16 Nm East Of Boston, Ma
  • Boston 16 Nm East Of Boston, Ma

More Historic Weather Station data

Upgrade to MSW Pro to gain access to the past 30 days of data for over 8000 Wavebouys and Weather Stations around the globe.

Join Pro

Comparision Forecast

View Surf forecast
   
Sat 04/29 8:50pm 2.5ft 4s 4s 16 18 mph 1012.8mb 49f 60f
7:50pm 3ft 4s 4s 18 20 mph 1011.6mb 49f 61f
6:50pm 3ft 4s 4s 16 18 mph 1011.2mb 49f 62f
5:50pm 1.6ft 8s 5s 22 27 mph 1010.5mb 50f 66f
4:50pm 1.6ft 8s 5s 13 16 mph 1009.6mb 50f 62f
3:50pm 1.6ft 10s 5s 9 11 mph 1008.8mb 50f 64f
2:50pm 1.6ft 8s 5s 11 13 mph 1009mb 50f 66f
1:50pm 2ft 8s 6s 11 13 mph 1009.1mb 49f 65f
12:50pm 1.6ft 8s 6s 7 9 mph 1010.2mb 49f 62f
11:50am 2ft 8s 6s 11 13 mph 1011.8mb 49f 58f
10:50am 2ft 8s 6s 11
mph
1012.8mb 49f 55f
9:50am 2.5ft 8s 7s 7
mph
1013.7mb 49f 58f
8:50am 2.5ft 8s 7s 9
mph
1013.9mb 49f 57f
7:50am 2.5ft 7s 7s 2 4 mph 1014.2mb 49f 56f
6:50am 2ft 8s 7s 7 9 mph 1014mb 49f 56f
5:50am 1.6ft 8s 6s 7 9 mph 1014.2mb 49f 54f
4:50am 1.6ft 8s 6s 9
mph
1014.6mb 49f 54f
3:50am 2ft 8s 6s 9
mph
1013.8mb 49f 54f
2:50am 2ft 9s 6s 7
mph
1014.3mb 49f 54f
1:50am 2ft 9s 6s 7 9 mph 1014.8mb 49f 54f
12:50am 2.5ft 9s 6s 7
mph
1015mb 49f 56f
Fri 04/28 11:50pm 2.5ft 9s 6s 9
mph
1015.1mb 48f 62f
10:50pm 3ft 8s 6s 9
mph
1014.8mb 49f 59f
9:50pm 3ft 8s 6s 9 11 mph 1014.9mb 49f 58f
8:50pm 2.5ft 8s 6s 9
mph
1014.2mb 50f 56f
7:50pm 3.5ft 9s 7s 13 16 mph 1013.5mb 51f 58f
6:50pm 3.5ft 9s 7s 9 13 mph 1013.3mb 52f 60f
5:50pm 3ft 8s 7s 11 13 mph 1012.8mb 51f 59f
4:50pm 2.5ft 9s 7s 7 9 mph 1013.1mb 50f 57f
3:50pm 2.5ft 9s 6s 9
mph
1012.5mb 49f 54f
2:50pm 2.5ft 9s 6s 9 11 mph 1013.3mb 49f 53f
1:50pm 2.5ft 9s 6s 7 9 mph 1013.4mb 49f 53f
12:50pm 2.5ft 9s 6s 4 7 mph 1013.5mb 50f 54f
11:50am 3.5ft 9s 6s 2
mph
1014mb 49f 53f
10:50am 3.5ft 10s 6s 4
mph
1013.7mb 48f 50f
9:50am 3.5ft 9s 6s 4 7 mph 1013.2mb 47f 51f
7:50am 3.5ft 9s  -  7 9 mph 1013.6mb 47f 49f
6:50am 3.5ft 10s 7s 9
mph
1013.3mb 47f 49f
5:50am 3.5ft 9s 7s 9
mph
1013mb 47f 49f
4:50am 3.5ft 10s 7s 11 13 mph 1012.7mb 47f 49f
3:50am 4.5ft 9s 8s 11
mph
1013.2mb 47f 49f
2:50am 3.5ft 9s 7s 9 11 mph 1012.8mb 47f 49f
1:50am 3.5ft 9s 7s 11 13 mph 1013mb 47f 50f
12:50am 3.5ft 10s 6s 9
mph
1013mb 47f 50f
Thu 04/27 11:50pm 4ft 10s 6s 9 11 mph 1012.9mb 47f 50f
10:50pm 4.5ft 10s 6s 11
mph
1013.1mb 47f 50f
9:50pm 4.5ft 10s 7s 11 13 mph 1013.3mb 47f 50f
7:50pm 4.5ft 11s 7s 7
mph
1013.1mb 48f 49f
6:50pm 4.5ft 10s 7s 7 9 mph 1012.5mb 48f 48f
5:50pm 4ft 10s 7s 7
mph
1013.1mb 49f 49f
4:50pm 4ft 10s 7s 7 9 mph 1012.9mb 48f 49f
3:50pm 4ft 10s 7s 7
mph
1012.6mb 50f 50f
2:50pm 4ft 10s 7s 4
mph
1012.7mb 48f 50f
1:50pm 4ft 10s 7s 2 4 mph 1012.8mb 50f 50f
12:50pm 4.5ft 10s 7s 2 4 mph 1012.6mb 49f 50f
11:50am 4.5ft 10s 6s 2 4 mph 1013mb 48f 50f
10:50am 4.5ft 8s 6s 2 4 mph 1012.9mb 47f 49f
9:50am 4.5ft 9s 6s 4
mph
1012.8mb 47f 47f
8:50am 4.5ft 8s 7s 4 7 mph 1012.3mb 46f 47f
7:50am 4.5ft 8s 6s 4 7 mph 1012.3mb 46f 47f
6:50am 5ft 11s 7s 4 7 mph 1011.7mb 45f 47f
5:50am 5ft 10s 7s 4 7 mph 1011.1mb 45f 46f
4:50am 4.5ft 10s 7s 2
mph
1010.4mb 45f 46f
3:50am 5ft 9s 7s 9 11 mph 1010mb 45f 46f
2:50am 4.5ft 9s 6s 2
mph
1010mb 45f 46f
1:50am 4.5ft 7s 6s 4
mph
1010.1mb 45f 46f
12:50am 4.5ft 8s 6s 2 4 mph 1009.9mb 46f 46f
Wed 04/26 11:50pm 4.5ft 8s 6s 4 7 mph 1009.8mb 46f 47f
10:50pm 4.5ft 7s 6s 2 4 mph 1009.5mb 47f 48f
9:50pm 5ft 7s 6s 7 9 mph 1008.7mb 47f 47f
7:50pm 5.5ft 7s 6s 13 16 mph 1009mb 47f 49f
6:50pm 5.5ft 6s 6s 11 13 mph 1009.1mb 47f 49f
5:50pm 5ft 7s 6s 11 13 mph 1009.1mb 47f 49f
4:50pm 5ft 7s 6s 9 11 mph 1009mb 47f 50f
3:50pm 5ft 7s 6s 11
mph
1009.3mb 47f 50f
2:50pm 4.5ft 7s 6s 9 13 mph 1009.7mb 47f 49f
1:50pm 4.5ft 7s 5s 9 11 mph 1009.8mb 46f 49f
12:50pm 5ft 7s 5s 11 13 mph 1010.2mb 46f 50f
11:50am 5ft 7s 5s 16 18 mph 1010.2mb 46f 51f
10:50am 5ft 7s 5s 11 13 mph 1010.5mb 46f 49f
9:50am 5ft 7s 5s 11 13 mph 1010.8mb 46f 48f
8:50am 6ft 7s 5s 13 16 mph 1011.2mb 46f 48f
7:50am 5.5ft 7s 5s 18 20 mph 1011.3mb 46f 49f
6:50am 5.5ft 7s 5s 18 20 mph 1011.4mb 46f 48f
5:50am 5ft 7s 6s 13 18 mph 1012mb 46f 48f
4:50am 5.5ft 7s 6s 13 18 mph 1012mb 46f 48f
3:50am 6ft 7s 6s 7 9 mph 1013.6mb 46f 47f
2:50am 6ft 7s 6s 4 7 mph 1014.5mb 46f 47f